Kuna, Idaho
Current Conditions -  °F | °C
As of 8:35 PM on Saturday 24 Jan 2015 (Local Time) from KMAN Reporting Station
NA  
Wind Chill: 32°   Ceiling: NA
Heat Index: 36°   Visibility: 7mi
Dew Point: 36°   Wind: 5mph
Humidity: 100%   Direction: 20°NNE
Pressure: 30.48"   Gusts: NA
Location:  43.49°N, 116.42°W
Report Text: KMAN 250335Z AUTO 02004KT 7SM 02/02 A3048 RMK AO1
Loading
Personal Weather Stations






























Interactive Weather Map New forecast layout! Learn more

10-Day Weather Forecast

Advertisements
Track Severe Weather on mobile